Flight Track Log - Related Links

Times and Time Zones

All times are in EDT time to prevent confusion due to time zone crossing. See the SWA311 flight status page for this flight to view local times or setup timezone preferences in your user account.

Time Position Orientation Groundspeed Altitude Reporting Facility
EDT Latitude Longitude Course Direction KTS MPH feet Rate Location/Type
Sun 08:05:33 AM 29.5503 -98.4439 36° Northeast 170 196 1,600  Level Houston Center
Sun 08:06:04 AM 29.5736 -98.4242 36° Northeast 196 226 2,400 1,829 Climbing Houston Center
Sun 08:06:55 AM 29.6125 -98.3794 45° Northeast 235 270 4,100 2,839 Climbing Houston Center
Sun 08:07:56 AM 29.6206 -98.2967 84° East 259 298 7,700 3,223 Climbing Houston Center
Sun 08:08:56 AM 29.6303 -98.2111 83° East 273 314 10,600 3,074 Climbing Houston Center
Sun 08:09:57 AM 29.6403 -98.1167 83° East 293 337 13,900 3,098 Climbing Houston Center
Sun 08:10:58 AM 29.6508 -98.0164 83° East 313 360 16,900 2,182 Climbing Houston Center
Sun 08:11:58 AM 29.6878 -97.9186 66° East 360 414 18,300 1,934 Climbing Houston Center
Sun 08:12:59 AM 29.7561 -97.8264 50° Northeast 387 445 20,800 2,459 Climbing Houston Center
Sun 08:14:00 AM 29.8344 -97.7200 50° Northeast 394 453 23,300 2,281 Climbing Houston Center
Sun 08:15:00 AM 29.9078 -97.6206 50° Northeast 404 465 25,400 1,835 Climbing Houston Center
Sun 08:16:01 AM 29.9781 -97.5253 50° Northeast 422 486 27,000 1,525 Climbing Houston Center
Sun 08:17:02 AM 30.0583 -97.4139 50° Northeast 442 509 28,500 1,525 Climbing Houston Center
Sun 08:18:03 AM 30.1364 -97.3081 50° Northeast 449 517 30,100 1,475 Climbing Houston Center
Sun 08:19:04 AM 30.2197 -97.1928 50° Northeast 462 532 31,500 1,537 Climbing Houston Center
Sun 08:20:04 AM 30.3208 -97.0511 50° Northeast 472 543 33,200 1,388 Climbing Houston Center
Sun 08:21:05 AM 30.4078 -96.9319 50° Northeast 481 554 34,300 1,328 Climbing Houston Center
Sun 08:22:06 AM 30.4947 -96.8097 50° Northeast 489 563 35,900 1,623 Climbing Houston Center
Sun 08:23:07 AM 30.5806 -96.6886 51° Northeast 492 566 37,600 1,488 Climbing Houston Center
Sun 08:24:07 AM 30.6656 -96.5689 50° Northeast 489 563 38,900 694 Climbing Houston Center
Sun 08:25:08 AM 30.7508 -96.4489 50° Northeast 487 560 39,000 49 Climbing Houston Center
Sun 08:26:09 AM 30.8356 -96.3306 50° Northeast 484 557 39,000  Level Houston Center
Sun 08:27:10 AM 30.9206 -96.2114 50° Northeast 482 555 39,000  Level Houston Center
Sun 08:28:11 AM 31.0042 -96.0911 51° Northeast 482 555 39,000  Level Houston Center
Sun 08:29:11 AM 31.0978 -95.9544 51° Northeast 481 554 39,000  Level Houston Center
Sun 08:30:12 AM 31.1833 -95.8331 50° Northeast 481 554 39,000  Level Houston Center
Sun 08:31:13 AM 31.2683 -95.7114 51° Northeast 481 554 39,000  Level Houston Center
Sun 08:32:14 AM 31.3525 -95.5889 51° Northeast 481 554 39,000  Level Houston Center
Sun 08:33:15 AM 31.4392 -95.4667 50° Northeast 481 554 39,000  Level Houston Center
Sun 08:34:16 AM 31.5247 -95.3431 51° Northeast 483 556 39,000  Level Houston Center
Sun 08:35:09 AM 31.5956 -95.2428 50° Northeast 487 560 39,000  Level Fort Worth Center
Sun 08:36:09 AM 31.6806 -95.1189 51° Northeast 486 559 39,000  Level Fort Worth Center
Sun 08:37:10 AM 31.7664 -94.9936 51° Northeast 486 559 39,000  Level Fort Worth Center
Sun 08:38:11 AM 31.8519 -94.8689 51° Northeast 487 560 39,000  Level Fort Worth Center
Sun 08:39:11 AM 31.9369 -94.7433 51° Northeast 487 560 39,000  Level Fort Worth Center
Sun 08:40:12 AM 32.0222 -94.6178 51° Northeast 487 560 39,000  Level Fort Worth Center
Sun 08:41:13 AM 32.1069 -94.4936 51° Northeast 487 560 39,000  Level Fort Worth Center
Sun 08:42:13 AM 32.1828 -94.3597 56° Northeast 488 562 39,000  Level Fort Worth Center
Sun 08:43:14 AM 32.2603 -94.2214 56° Northeast 490 564 39,000  Level Fort Worth Center
Sun 08:44:15 AM 32.3356 -94.0867 56° Northeast 491 565 39,000  Level Fort Worth Center
Sun 08:45:16 AM 32.4117 -93.9517 56° Northeast 496 571 39,000  Level Fort Worth Center
Sun 08:46:16 AM 32.5014 -93.7939 56° Northeast 483 556 39,000  Level Fort Worth Center
Sun 08:47:17 AM 32.5783 -93.6575 56° Northeast 491 565 39,000  Level Fort Worth Center
Sun 08:48:18 AM 32.6542 -93.5200 57° Northeast 496 571 39,000  Level Fort Worth Center
Sun 08:49:19 AM 32.7306 -93.3833 56° Northeast 500 575 39,000  Level Fort Worth Center
Sun 08:50:19 AM 32.8050 -93.2489 57° Northeast 495 570 39,000  Level Fort Worth Center
Sun 08:51:20 AM 32.8789 -93.1139 57° Northeast 490 564 39,000  Level Fort Worth Center
Sun 08:52:21 AM 32.9544 -92.9778 56° Northeast 491 565 39,000  Level Fort Worth Center
Sun 08:53:22 AM 33.0306 -92.8400 57° Northeast 499 574 39,000  Level Fort Worth Center
Sun 08:54:23 AM 33.1042 -92.7056 57° Northeast 491 565 39,000  Level Fort Worth Center
Sun 08:55:24 AM 33.1789 -92.5703 57° Northeast 488 562 39,000  Level Fort Worth Center
Sun 08:56:24 AM 33.2525 -92.4336 57° Northeast 489 563 39,000  Level Fort Worth Center
Sun 08:57:25 AM 33.3414 -92.2708 57° Northeast 489 563 39,000  Level Fort Worth Center
Sun 08:58:26 AM 33.4153 -92.1339 57° Northeast 489 563 39,000  Level Fort Worth Center
Sun 08:59:27 AM 33.4894 -91.9939 58° Northeast 496 571 39,000  Level Fort Worth Center
Sun 09:00:28 AM 33.5639 -91.8561 57° Northeast 496 571 39,000  Level Fort Worth Center
Sun 09:01:29 AM 33.6381 -91.7164 57° Northeast 495 570 39,000  Level Fort Worth Center
Sun 09:02:30 AM 33.7128 -91.5764 57° Northeast 497 572 39,000  Level Fort Worth Center
Sun 09:03:31 AM 33.7878 -91.4372 57° Northeast 498 573 39,000  Level Fort Worth Center
Sun 09:04:32 AM 33.8597 -91.2967 58° Northeast 496 571 39,000  Level Fort Worth Center
Sun 09:05:33 AM 33.9331 -91.1578 58° Northeast 494 568 39,000  Level Fort Worth Center
Sun 09:07:01 AM 34.0417 -90.9517 58° Northeast 496 571 39,000  Level Memphis Center
Sun 09:08:02 AM 34.1142 -90.8117 58° Northeast 496 571 39,000  Level Memphis Center
Sun 09:09:03 AM 34.1867 -90.6728 58° Northeast 494 568 39,000  Level Memphis Center
Sun 09:10:04 AM 34.2583 -90.5333 58° Northeast 493 567 39,000  Level Memphis Center
Sun 09:11:05 AM 34.3294 -90.3936 58° Northeast 493 567 39,000  Level Memphis Center
Sun 09:12:06 AM 34.4158 -90.2264 58° Northeast 493 567 39,000  Level Memphis Center
Sun 09:13:07 AM 34.4875 -90.0864 58° Northeast 493 567 39,000  Level Memphis Center
Sun 09:14:08 AM 34.5581 -89.9458 59° Northeast 492 566 39,000  Level Memphis Center
Sun 09:15:09 AM 34.6286 -89.8053 59° Northeast 493 567 39,000  Level Memphis Center
Sun 09:16:10 AM 34.6983 -89.6647 59° Northeast 495 570 39,000  Level Memphis Center
Sun 09:17:11 AM 34.7683 -89.5247 59° Northeast 495 570 39,000  Level Memphis Center
Sun 09:18:12 AM 34.8397 -89.3858 58° Northeast 493 567 39,000  Level Memphis Center
Sun 09:19:13 AM 34.9236 -89.2172 59° Northeast 492 566 39,000  Level Memphis Center
Sun 09:20:14 AM 34.9942 -89.0764 59° Northeast 492 566 39,000  Level Memphis Center
Sun 09:21:15 AM 35.0647 -88.9333 59° Northeast 492 566 39,000  Level Memphis Center
Sun 09:22:16 AM 35.1347 -88.7917 59° Northeast 492 566 39,000  Level Memphis Center
Sun 09:23:17 AM 35.2025 -88.6472 60° Northeast 492 566 39,000  Level Memphis Center
Sun 09:24:18 AM 35.2572 -88.4944 66° East 492 566 39,000  Level Memphis Center
Sun 09:25:19 AM 35.3119 -88.3531 65° Northeast 492 566 39,000  Level Memphis Center
Sun 09:26:20 AM 35.3706 -88.2022 64° Northeast 491 565 39,000  Level Memphis Center
Sun 09:27:21 AM 35.4339 -88.0353 65° Northeast 492 566 39,000  Level Memphis Center
Sun 09:28:22 AM 35.4925 -87.8808 65° Northeast 492 566 39,000  Level Memphis Center
Sun 09:29:24 AM 35.5500 -87.7261 65° Northeast 492 566 39,000  Level Memphis Center
Sun 09:30:25 AM 35.6069 -87.5731 65° Northeast 492 566 39,000  Level Memphis Center
Sun 09:31:26 AM 35.6639 -87.4197 65° Northeast 492 566 39,000  Level Memphis Center
Sun 09:32:27 AM 35.7211 -87.2658 65° Northeast 492 566 39,000  Level Memphis Center
Sun 09:33:28 AM 35.7872 -87.0869 65° Northeast 491 565 39,000  Level Memphis Center
Sun 09:34:29 AM 35.8431 -86.9339 66° East 491 565 39,000  Level Memphis Center
Sun 09:35:30 AM 35.8981 -86.7811 66° East 490 564 39,000  Level Memphis Center
Sun 09:36:31 AM 35.9539 -86.6294 66° East 488 562 39,000  Level Memphis Center
Sun 09:37:32 AM 36.0083 -86.4778 66° East 488 562 39,000  Level Memphis Center
Sun 09:38:33 AM 36.0639 -86.3247 66° East 487 560 39,000  Level Memphis Center
Sun 09:39:35 AM 36.1186 -86.1722 66° East 487 560 39,000  Level Memphis Center
Sun 09:40:36 AM 36.1736 -86.0183 66° East 487 560 39,000  Level Memphis Center
Sun 09:41:37 AM 36.2286 -85.8642 66° East 487 560 39,000  Level Memphis Center
Sun 09:42:38 AM 36.2872 -85.6967 66° East 487 560 39,000  Level Memphis Center
Sun 09:43:39 AM 36.3417 -85.5436 66° East 487 560 39,000  Level Memphis Center
Sun 09:44:34 AM 36.3864 -85.4194 66° East 487 560 39,000  Level Indianapolis Center
Sun 09:45:35 AM 36.4400 -85.2650 67° East 487 560 39,000  Level Indianapolis Center
Sun 09:46:36 AM 36.4939 -85.1108 66° East 486 559 39,000  Level Indianapolis Center
Sun 09:47:38 AM 36.5575 -84.9256 67° East 486 559 39,000  Level Indianapolis Center
Sun 09:48:39 AM 36.6103 -84.7700 67° East 486 559 39,000  Level Indianapolis Center
Sun 09:49:40 AM 36.6636 -84.6150 67° East 486 559 39,000  Level Indianapolis Center
Sun 09:50:41 AM 36.7150 -84.4600 67° East 486 559 39,000  Level Indianapolis Center
Sun 09:51:42 AM 36.7664 -84.3044 68° East 486 559 39,000  Level Indianapolis Center
Sun 09:52:44 AM 36.8192 -84.1489 67° East 486 559 39,000  Level Indianapolis Center
Sun 09:53:45 AM 36.8708 -83.9933 67° East 485 558 39,000  Level Indianapolis Center
Sun 09:54:46 AM 36.9233 -83.8375 67° East 486 559 39,000  Level Indianapolis Center
Sun 09:55:47 AM 36.9750 -83.6817 67° East 485 558 39,000  Level Indianapolis Center
Sun 09:56:49 AM 37.0261 -83.5267 68° East 485 558 39,000  Level Indianapolis Center
Sun 09:57:50 AM 37.0775 -83.3711 67° East 484 557 39,000  Level Indianapolis Center
Sun 09:58:51 AM 37.1364 -83.1892 68° East 481 554 39,000  Level Indianapolis Center
Sun 09:59:52 AM 37.1883 -83.0325 67° East 481 554 39,000  Level Indianapolis Center
Sun 10:00:54 AM 37.2378 -82.8747 68° East 481 554 39,000  Level Indianapolis Center
Sun 10:01:55 AM 37.2867 -82.7181 69° East 481 554 39,000  Level Indianapolis Center
Sun 10:02:56 AM 37.3369 -82.5614 68° East 481 554 39,000  Level Indianapolis Center
Sun 10:03:57 AM 37.3861 -82.4047 68° East 481 554 39,000  Level Indianapolis Center
Sun 10:04:59 AM 37.4350 -82.2483 68° East 480 552 39,000  Level Indianapolis Center
Sun 10:06:00 AM 37.4842 -82.0900 69° East 481 554 39,000  Level Indianapolis Center
Sun 10:07:01 AM 37.5322 -81.9342 69° East 481 554 39,000  Level Indianapolis Center
Sun 10:08:02 AM 37.5814 -81.7769 68° East 480 552 39,000  Level Indianapolis Center
Sun 10:09:03 AM 37.6286 -81.6197 69° East 480 552 39,000  Level Indianapolis Center
Sun 10:10:04 AM 37.6761 -81.4681 68° East 480 552 39,000  Level Indianapolis Center
Sun 10:11:06 AM 37.7228 -81.3122 69° East 479 551 39,000  Level Indianapolis Center
Sun 10:12:07 AM 37.7703 -81.1553 69° East 478 550 39,000  Level Indianapolis Center
Sun 10:13:08 AM 37.8219 -80.9658 71° East 478 550 39,000  Level Indianapolis Center
Sun 10:14:09 AM 37.8614 -80.8269 70° East 478 550 39,000  Level Indianapolis Center
Sun 10:15:10 AM 37.9047 -80.6697 71° East 478 550 39,000  Level Indianapolis Center
Sun 10:16:11 AM 37.9483 -80.5128 71° East 477 549 39,000  Level Indianapolis Center
Sun 10:17:12 AM 37.9975 -80.3344 71° East 477 549 39,000  Level Indianapolis Center
Sun 10:18:13 AM 38.0414 -80.1750 71° East 477 549 39,000  Level Indianapolis Center
Sun 10:19:15 AM 38.0850 -80.0169 71° East 477 549 39,000  Level Indianapolis Center
Sun 10:20:16 AM 38.1275 -79.8586 71° East 476 548 39,000  Level Indianapolis Center
Sun 10:21:17 AM 38.1692 -79.7008 71° East 474 545 39,000 -1,033 Level Indianapolis Center
Sun 10:22:18 AM 38.2114 -79.5450 71° East 470 541 36,900 -2,361 Descending Indianapolis Center
Sun 10:23:19 AM 38.2528 -79.3892 71° East 467 537 34,200 -2,441 Descending Indianapolis Center
Sun 10:24:43 AM 38.3106 -79.1681 72° East 467 537 31,000 -2,193 Descending Washington Center
Sun 10:25:44 AM 38.3497 -79.0144 72° East 462 532 28,900 -1,967 Descending Washington Center
Sun 10:26:45 AM 38.3881 -78.8678 72° East 447 514 27,000 -919 Descending Washington Center
Sun 10:27:48 AM 38.4247 -78.7217 72° East 437 503 27,000  Level Washington Center
Sun 10:28:50 AM 38.4706 -78.5456 72° East 437 503 27,000 -98 Level Washington Center
Sun 10:29:50 AM 38.5069 -78.4006 72° East 436 502 26,800 -1,161 Descending Washington Center
Sun 10:30:54 AM 38.5431 -78.2589 72° East 427 491 24,600 -2,032 Descending Washington Center
Sun 10:31:54 AM 38.5781 -78.1194 72° East 418 481 22,600 -1,967 Descending Washington Center
Sun 10:32:56 AM 38.6125 -77.9808 72° East 414 476 20,600 -1,762 Descending Washington Center
Sun 10:34:00 AM 38.6439 -77.8456 73° East 404 465 18,900 -774 Descending Washington Center
Sun 10:35:00 AM 38.6522 -77.6844 86° East 387 445 19,000  Climbing Washington Center
Sun 10:35:39 AM 38.6500 -77.6000 92° East 388 447 18,900 -1,152 Descending Potomac TRACON
Sun 10:36:39 AM 38.6667 -77.4667 81° East 375 432 17,100 -1,500 Descending Potomac TRACON
Sun 10:37:39 AM 38.6667 -77.3333 90° East 366 421 15,900 -1,252 Descending Potomac TRACON
Sun 10:38:34 AM 38.6833 -77.2167 80° East 352 405 14,700 -1,617 Descending Potomac TRACON
Sun 10:39:34 AM 38.6833 -77.0833 90° East 353 406 12,800 -1,462 Descending Potomac TRACON
Sun 10:40:33 AM 38.7000 -76.9667 80° East 335 386 11,800 -1,263 Descending Potomac TRACON
Sun 10:41:28 AM 38.7000 -76.8667 90° East 333 383 10,400 -1,282 Descending Potomac TRACON
Sun 10:42:16 AM 38.7036 -76.7908 86° East 322 371 9,600 -973 Descending Washington Center
Sun 10:43:19 AM 38.7292 -76.6906 72° East 306 352 8,600 -1,355 Descending Washington Center
Sun 10:44:20 AM 38.7703 -76.5958 61° Northeast 305 351 6,800 -1,707 Descending Washington Center
Sun 10:45:22 AM 38.8461 -76.5225 37° Northeast 303 349 5,100 -1,392 Descending Washington Center
Sun 10:46:25 AM 38.9250 -76.4978 14° North 295 339 3,900 -1,100 Descending Washington Center
Sun 10:47:22 AM 39.0000 -76.5000 359° North 275 316 2,900 -974 Descending Potomac TRACON
Sun 10:48:22 AM 39.0833 -76.5167 351° North 262 302 2,000 -450 Descending Potomac TRACON
Sun 10:49:22 AM 39.1333 -76.5333 346° North 207 238 2,000 -250 Level Potomac TRACON
Sun 10:50:22 AM 39.1667 -76.5667 322° Northwest 154 177 1,500 -600 Descending Potomac TRACON
Sun 10:51:22 AM 39.1667 -76.6167 270° West 135 155 800 -700 Descending Potomac TRACON
Sun 10:54:00 AM 39.1667 -76.6667 339° North  Level FlightAware Approximate

Login

Don't have an account? Register now (free) for customized features, flight alerts, and more!